Terminal Aerodrome Forecast
Issued by NWS Grand Rapids, MI

Home | Current Version | Previous Version | Text Only | Print | Product List | Glossary On
Versions: 1 2 3 4 5 6 7 8 9 10 11 12 13 14 15 16 17 18 19 20 21 22 23 24 25 26 27 28 29
854
FTUS43 KGRR 222339
TAFGRR
TAF
KGRR 222339Z 2300/2324 19011KT P6SM FEW026 SCT150 SCT250
     FM230300 21012G22KT P6SM VCSH BKN080
     FM230600 22014G25KT P6SM OVC015
     FM230900 26008KT 1/4SM FG OVC001
     FM231400 31007KT P6SM BKN003
     FM231700 35006KT P6SM SCT040=

USA.gov is the U.S. government's official web portal to all federal, state and local government web resources and services.